createdAt,value
2023-04-19T00:01:34.352Z,100395.19
2023-04-19T00:04:04.129Z,100378.97
2023-04-19T00:06:34.531Z,100357.50
2023-04-19T00:09:05.373Z,100361.72
2023-04-19T00:11:34.473Z,100352.41
2023-04-19T00:14:03.677Z,100391.09
2023-04-19T00:16:43.775Z,100364.63
2023-04-19T00:19:17.919Z,100389.88
2023-04-19T00:21:48.411Z,100380.44
2023-04-19T00:24:19.187Z,100371.06
2023-04-19T00:26:52.881Z,100375.09
2023-04-19T00:29:22.402Z,100382.59
2023-04-19T00:31:53.207Z,100351.28
2023-04-19T00:34:24.189Z,100372.19
2023-04-19T00:36:54.396Z,100329.34
2023-04-19T00:39:25.351Z,100312.00
2023-04-19T00:41:55.604Z,100369.38
2023-04-19T00:44:25.339Z,100346.47
2023-04-19T00:46:57.878Z,100355.44
2023-04-19T00:49:27.363Z,100356.16
2023-04-19T00:51:56.901Z,100316.38
2023-04-19T00:54:27.821Z,100350.47
2023-04-19T00:56:58.417Z,100349.72
2023-04-19T00:59:27.862Z,100349.34
2023-04-19T01:01:57.204Z,100352.66
2023-04-19T01:04:26.767Z,100353.97
2023-04-19T01:06:56.267Z,100351.06
2023-04-19T01:09:38.782Z,100350.09
2023-04-19T01:12:08.591Z,100346.69
2023-04-19T01:14:37.557Z,100336.50
2023-04-19T01:17:07.517Z,100334.22
2023-04-19T01:19:37.604Z,100338.44
2023-04-19T01:22:07.104Z,100344.50
2023-04-19T01:24:40.184Z,100342.44
2023-04-19T01:27:11.493Z,100331.41
2023-04-19T01:29:40.735Z,100318.78
2023-04-19T01:32:09.854Z,100334.34
2023-04-19T01:34:38.874Z,100339.19
2023-04-19T01:37:07.936Z,100313.44
2023-04-19T01:39:40.716Z,100327.75
2023-04-19T01:42:09.873Z,100316.09
2023-04-19T01:44:39.049Z,100336.91
2023-04-19T01:47:11.027Z,100323.06
2023-04-19T01:49:42.454Z,100330.28
2023-04-19T01:52:11.491Z,100327.50
2023-04-19T01:54:41.794Z,100323.72
2023-04-19T01:57:10.912Z,100321.44
2023-04-19T01:59:40.056Z,100326.34
2023-04-19T02:02:09.383Z,100321.09
2023-04-19T02:04:38.488Z,100322.94
2023-04-19T02:07:08.492Z,100319.69
2023-04-19T02:09:37.717Z,100326.72
2023-04-19T02:12:08.578Z,100318.88
2023-04-19T02:14:37.787Z,100323.34
2023-04-19T02:17:06.907Z,100302.41
2023-04-19T02:19:36.440Z,100309.09
2023-04-19T02:22:07.349Z,100315.16
2023-04-19T02:24:36.543Z,100317.00
2023-04-19T02:27:16.473Z,100304.03
2023-04-19T02:29:56.105Z,100298.91
2023-04-19T02:32:27.637Z,100268.09
2023-04-19T02:35:00.691Z,100307.44
2023-04-19T02:37:31.377Z,100305.53
2023-04-19T02:40:02.372Z,100307.88
2023-04-19T02:42:37.806Z,100296.09
2023-04-19T02:45:09.493Z,100314.44
2023-04-19T02:47:39.953Z,100318.94
2023-04-19T02:50:12.007Z,100317.03
2023-04-19T02:52:47.767Z,100314.56
2023-04-19T02:55:17.123Z,100323.50
2023-04-19T02:57:50.200Z,100327.03
2023-04-19T03:00:20.086Z,100317.22
2023-04-19T03:03:04.335Z,100326.50
2023-04-19T03:05:35.354Z,100318.59
2023-04-19T03:08:05.739Z,100320.09
2023-04-19T03:10:34.958Z,100323.19
2023-04-19T03:13:06.155Z,100298.06
2023-04-19T03:15:35.273Z,100272.34
2023-04-19T03:18:04.701Z,100312.97
2023-04-19T03:20:34.512Z,100308.06
2023-04-19T03:23:07.720Z,100310.16
2023-04-19T03:25:37.204Z,100300.78
2023-04-19T03:28:21.164Z,100281.63
2023-04-19T03:31:11.715Z,100300.50
2023-04-19T03:33:41.913Z,100289.31
2023-04-19T03:36:13.700Z,100289.97
2023-04-19T03:38:46.014Z,100299.88
2023-04-19T03:41:20.820Z,100298.03
2023-04-19T03:43:54.880Z,100304.84
2023-04-19T03:46:26.815Z,100301.22
2023-04-19T03:48:55.886Z,100296.38
2023-04-19T03:51:32.763Z,100296.53
2023-04-19T03:54:03.092Z,100290.22
2023-04-19T03:56:34.889Z,100297.75
2023-04-19T03:59:05.656Z,100300.69
2023-04-19T04:01:42.394Z,100282.84
2023-04-19T04:04:13.001Z,100296.25
2023-04-19T04:06:43.447Z,100285.16
2023-04-19T04:09:12.482Z,100297.84
2023-04-19T04:11:41.432Z,100302.47
2023-04-19T04:14:15.684Z,100301.78
2023-04-19T04:16:45.019Z,100302.00
2023-04-19T04:19:14.815Z,100303.00
2023-04-19T04:21:44.685Z,100299.72
2023-04-19T04:24:14.923Z,100300.56
2023-04-19T04:27:04.406Z,100281.16
2023-04-19T04:29:38.232Z,100300.31
2023-04-19T04:32:11.578Z,100288.94
2023-04-19T04:34:44.396Z,100290.78
2023-04-19T04:37:19.149Z,100296.47
2023-04-19T04:39:49.554Z,100295.88
2023-04-19T04:42:21.690Z,100302.69
2023-04-19T04:44:52.572Z,100297.47
2023-04-19T04:47:22.276Z,100299.16
2023-04-19T04:49:56.734Z,100299.03
2023-04-19T04:52:25.950Z,100303.25
2023-04-19T04:55:07.802Z,100297.31
2023-04-19T04:57:39.775Z,100287.84
2023-04-19T05:00:14.383Z,100289.31
2023-04-19T05:02:58.277Z,100307.59
2023-04-19T05:05:27.647Z,100306.50
2023-04-19T05:07:58.212Z,100293.47
2023-04-19T05:10:27.756Z,100305.91
2023-04-19T05:12:57.921Z,100300.69
2023-04-19T05:15:28.825Z,100293.00
2023-04-19T05:17:58.382Z,100285.31
2023-04-19T05:20:28.317Z,100302.84
2023-04-19T05:23:11.136Z,100304.44
2023-04-19T05:25:41.187Z,100295.94
2023-04-19T05:28:12.996Z,100306.00
2023-04-19T05:31:01.828Z,100304.72
2023-04-19T05:33:36.219Z,100291.63
2023-04-19T05:36:05.986Z,100311.13
2023-04-19T05:38:35.178Z,100303.84
2023-04-19T05:41:05.624Z,100285.22
2023-04-19T05:43:34.732Z,100279.09
2023-04-19T05:46:06.189Z,100298.84
2023-04-19T05:48:35.808Z,100304.75
2023-04-19T05:51:39.936Z,100306.38
2023-04-19T05:54:35.893Z,100294.09
2023-04-19T05:57:05.952Z,100265.19
2023-04-19T05:59:37.259Z,100297.44
2023-04-19T06:02:08.799Z,100314.72
2023-04-19T06:04:38.389Z,100291.63
2023-04-19T06:07:17.744Z,100309.69
2023-04-19T06:09:57.823Z,100319.81
2023-04-19T06:12:27.355Z,100304.69
2023-04-19T06:14:56.766Z,100308.84
2023-04-19T06:17:27.813Z,100303.97
2023-04-19T06:19:57.186Z,100298.16
2023-04-19T06:22:26.798Z,100299.38
2023-04-19T06:24:56.012Z,100303.00
2023-04-19T06:27:25.162Z,100304.56
2023-04-19T06:29:54.496Z,100281.66
2023-04-19T06:32:42.565Z,100288.47
2023-04-19T06:35:12.174Z,100295.41
2023-04-19T06:37:41.243Z,100296.75
2023-04-19T06:40:11.678Z,100264.53
2023-04-19T06:42:41.090Z,100289.91
2023-04-19T06:45:11.459Z,100301.03
2023-04-19T06:47:42.111Z,100292.22
2023-04-19T06:50:12.257Z,100290.41
2023-04-19T06:52:41.430Z,100282.22
2023-04-19T06:55:11.256Z,100302.25
2023-04-19T06:57:40.895Z,100274.56
2023-04-19T07:00:11.715Z,100295.97
2023-04-19T07:02:42.211Z,100296.28
2023-04-19T07:05:12.985Z,100265.34
2023-04-19T07:07:42.345Z,100250.81
2023-04-19T07:10:12.979Z,100285.84
2023-04-19T07:12:42.021Z,100281.28
2023-04-19T07:15:12.067Z,100289.81
2023-04-19T07:17:42.966Z,100279.63
2023-04-19T07:20:15.263Z,100283.00
2023-04-19T07:22:44.888Z,100286.41
2023-04-19T07:25:14.160Z,100292.97
2023-04-19T07:27:43.216Z,100291.25
2023-04-19T07:30:15.249Z,100292.31
2023-04-19T07:32:48.781Z,100290.84
2023-04-19T07:35:18.248Z,100275.00
2023-04-19T07:37:47.602Z,100261.31
2023-04-19T07:40:16.929Z,100277.19
2023-04-19T07:42:46.446Z,100285.50
2023-04-19T07:45:20.267Z,100267.78
2023-04-19T07:47:50.931Z,100293.09
2023-04-19T07:50:21.900Z,100282.31
2023-04-19T07:52:59.336Z,100285.63
2023-04-19T07:55:28.408Z,100281.41
2023-04-19T07:57:57.533Z,100261.53
2023-04-19T08:00:27.159Z,100281.81
2023-04-19T08:03:04.813Z,100270.97
2023-04-19T08:08:31.938Z,100279.31
2023-04-19T08:11:03.471Z,100268.22
2023-04-19T08:13:32.693Z,100278.44
2023-04-19T08:18:35.654Z,100270.94
2023-04-19T08:21:05.216Z,100248.56
2023-04-19T08:23:47.404Z,100266.00
2023-04-19T08:26:17.572Z,100271.75
2023-04-19T08:28:46.821Z,100277.78
2023-04-19T08:31:16.113Z,100262.16
2023-04-19T08:33:46.501Z,100265.38
2023-04-19T08:36:19.503Z,100236.47
2023-04-19T08:39:04.333Z,100253.06
2023-04-19T08:41:37.005Z,100254.06
2023-04-19T08:44:08.669Z,100263.16
2023-04-19T08:46:38.275Z,100242.78
2023-04-19T08:49:10.846Z,100238.22
2023-04-19T08:51:41.229Z,100243.16
2023-04-19T08:54:12.228Z,100244.25
2023-04-19T08:56:41.792Z,100252.25
2023-04-19T08:59:18.051Z,100251.22
2023-04-19T09:01:48.316Z,100242.97
2023-04-19T09:04:35.456Z,100235.84
2023-04-19T09:07:05.154Z,100240.91
2023-04-19T09:09:42.895Z,100239.41
2023-04-19T09:12:21.141Z,100236.56
2023-04-19T09:15:01.370Z,100235.31
2023-04-19T09:17:33.733Z,100204.47
2023-04-19T09:20:05.968Z,100220.59
2023-04-19T09:22:35.669Z,100241.69
2023-04-19T09:27:37.725Z,100235.09
2023-04-19T09:30:17.532Z,100246.56
2023-04-19T09:32:53.899Z,100220.13
2023-04-19T09:35:42.601Z,100248.28
2023-04-19T09:38:18.133Z,100245.47
2023-04-19T09:40:47.748Z,100228.59
2023-04-19T09:43:51.703Z,100245.16
2023-04-19T09:46:32.817Z,100244.13
2023-04-19T09:49:27.800Z,100226.91
2023-04-19T09:52:21.087Z,100215.94
2023-04-19T09:54:53.806Z,100209.59
2023-04-19T09:57:31.064Z,100185.66
2023-04-19T10:00:01.279Z,100231.56
2023-04-19T10:02:34.250Z,100224.34
2023-04-19T10:07:41.581Z,100243.25
2023-04-19T10:10:19.124Z,100233.34
2023-04-19T10:15:33.818Z,100235.72
2023-04-19T10:18:13.016Z,100208.38
2023-04-19T10:20:51.312Z,100225.06
2023-04-19T10:23:22.010Z,100233.34
2023-04-19T10:25:56.494Z,100247.19
2023-04-19T10:28:25.808Z,100250.28
2023-04-19T10:31:01.880Z,100217.28
2023-04-19T10:33:36.417Z,100230.88
2023-04-19T10:36:09.820Z,100243.06
2023-04-19T10:38:43.173Z,100230.34
2023-04-19T10:41:17.383Z,100239.19
2023-04-19T10:43:48.487Z,100225.34
2023-04-19T10:46:40.280Z,100237.56
2023-04-19T10:49:13.806Z,100251.91
2023-04-19T10:51:52.028Z,100217.78
2023-04-19T10:54:32.838Z,100227.78
2023-04-19T10:57:04.681Z,100258.47
2023-04-19T10:59:35.199Z,100244.72
2023-04-19T11:02:05.330Z,100252.63
2023-04-19T11:05:14.009Z,100251.50
2023-04-19T11:07:46.278Z,100254.44
2023-04-19T11:10:30.147Z,100254.19
2023-04-19T11:12:59.728Z,100239.81
2023-04-19T11:15:28.922Z,100252.22
2023-04-19T11:18:11.926Z,100252.41
2023-04-19T11:20:44.733Z,100246.81
2023-04-19T11:23:18.028Z,100252.31
2023-04-19T11:25:48.586Z,100247.84
2023-04-19T11:28:18.722Z,100249.19
2023-04-19T11:30:48.179Z,100242.34
2023-04-19T11:33:24.808Z,100253.53
2023-04-19T11:36:01.977Z,100258.41
2023-04-19T11:38:31.986Z,100262.16
2023-04-19T11:41:06.359Z,100252.91
2023-04-19T11:43:36.398Z,100236.06
2023-04-19T11:46:10.544Z,100273.56
2023-04-19T11:48:40.129Z,100266.78
2023-04-19T11:51:09.756Z,100233.34
2023-04-19T11:53:41.240Z,100257.81
2023-04-19T11:56:11.700Z,100252.03
2023-04-19T11:58:45.005Z,100271.63
2023-04-19T12:01:17.677Z,100264.91
2023-04-19T12:03:48.301Z,100275.13
2023-04-19T12:06:18.774Z,100257.16
2023-04-19T12:08:49.686Z,100268.50
2023-04-19T12:11:29.085Z,100249.34
2023-04-19T12:14:26.859Z,100172.53
2023-04-19T12:17:16.128Z,100263.13
2023-04-19T12:19:46.730Z,100255.75
2023-04-19T12:22:20.474Z,100252.28
2023-04-19T12:24:53.487Z,100256.41
2023-04-19T12:27:25.775Z,100271.81
2023-04-19T12:29:55.386Z,100217.53
2023-04-19T12:32:24.850Z,100278.66
2023-04-19T12:34:56.228Z,100270.88
2023-04-19T12:37:34.434Z,100226.09
2023-04-19T12:40:07.066Z,100269.59
2023-04-19T12:42:48.915Z,100267.91
2023-04-19T12:45:40.875Z,100175.00
2023-04-19T12:48:12.827Z,100289.81
2023-04-19T12:50:45.711Z,100283.03
2023-04-19T12:53:53.984Z,100146.53
2023-04-19T12:56:23.337Z,100141.09
2023-04-19T12:58:54.642Z,100277.66
2023-04-19T13:01:24.116Z,100279.34
2023-04-19T13:03:55.424Z,100285.78
2023-04-19T13:06:31.339Z,100259.28
2023-04-19T13:11:52.439Z,100289.13
2023-04-19T13:14:25.420Z,100289.00
2023-04-19T13:16:55.003Z,100300.59
2023-04-19T13:19:26.886Z,100290.50
2023-04-19T13:21:55.937Z,100294.88
2023-04-19T13:24:27.554Z,100251.72
2023-04-19T13:26:59.301Z,100288.13
2023-04-19T13:29:38.024Z,100277.69
2023-04-19T13:32:12.632Z,100292.81
2023-04-19T13:34:44.772Z,100250.69
2023-04-19T13:37:14.593Z,100297.16
2023-04-19T13:39:48.319Z,100229.53
2023-04-19T13:42:20.371Z,100297.09
2023-04-19T13:44:55.045Z,100301.44
2023-04-19T13:47:27.095Z,100306.53
2023-04-19T13:49:59.126Z,100291.19
2023-04-19T13:52:29.139Z,100249.09
2023-04-19T13:54:58.933Z,100263.59
2023-04-19T13:57:28.556Z,100249.38
2023-04-19T14:02:46.111Z,100187.84
2023-04-19T14:05:17.023Z,100292.56
2023-04-19T14:07:52.507Z,100249.59
2023-04-19T14:10:26.967Z,100311.44
2023-04-19T14:12:56.721Z,100306.34
2023-04-19T14:15:27.140Z,100313.34
2023-04-19T14:17:58.508Z,100262.13
2023-04-19T14:20:29.360Z,100302.31
2023-04-19T14:23:06.178Z,100317.56
2023-04-19T14:25:36.871Z,100310.53
2023-04-19T14:28:16.609Z,100308.44
2023-04-19T14:30:47.242Z,100302.81
2023-04-19T14:33:18.921Z,100303.53
2023-04-19T14:35:48.960Z,100293.47
2023-04-19T14:38:21.079Z,100255.63
2023-04-19T14:40:53.412Z,100275.13
2023-04-19T14:43:23.806Z,100295.56
2023-04-19T14:45:55.626Z,100277.38
2023-04-19T14:48:27.682Z,100274.25
2023-04-19T14:51:02.256Z,100300.28
2023-04-19T14:53:33.933Z,100300.38
2023-04-19T14:56:05.902Z,100284.16
2023-04-19T14:58:37.910Z,100301.63
2023-04-19T15:01:15.208Z,100302.44
2023-04-19T15:03:53.831Z,100290.13
2023-04-19T15:06:23.088Z,100271.84
2023-04-19T15:08:55.154Z,100298.38
2023-04-19T15:11:24.838Z,100299.81
2023-04-19T15:13:56.271Z,100279.13
2023-04-19T15:16:28.992Z,100287.44
2023-04-19T15:18:58.650Z,100289.06
2023-04-19T15:21:31.707Z,100289.69
2023-04-19T15:24:00.843Z,100300.69
2023-04-19T15:26:30.195Z,100264.13
2023-04-19T15:28:59.683Z,100222.75
2023-04-19T15:31:35.483Z,100289.19
2023-04-19T15:34:06.795Z,100291.91
2023-04-19T15:36:36.263Z,100285.06
2023-04-19T15:39:05.881Z,100274.88
2023-04-19T15:41:34.990Z,100285.44
2023-04-19T15:44:06.209Z,100276.97
2023-04-19T15:46:39.426Z,100290.31
2023-04-19T15:49:08.871Z,100287.38
2023-04-19T15:51:38.386Z,100275.97
2023-04-19T15:54:07.757Z,100283.22
2023-04-19T15:56:48.481Z,100277.22
2023-04-19T15:59:19.852Z,100291.06
2023-04-19T16:01:50.639Z,100289.53
2023-04-19T16:04:23.446Z,100262.34
2023-04-19T16:06:55.139Z,100279.66
2023-04-19T16:09:24.653Z,100291.41
2023-04-19T16:11:54.337Z,100293.47
2023-04-19T16:14:24.153Z,100290.31
2023-04-19T16:17:00.950Z,100283.41
2023-04-19T16:19:39.102Z,100281.72
2023-04-19T16:22:09.112Z,100287.19
2023-04-19T16:24:39.058Z,100249.69
2023-04-19T16:27:14.023Z,100296.25
2023-04-19T16:29:44.895Z,100270.16
2023-04-19T16:32:18.124Z,100305.00
2023-04-19T16:34:51.556Z,100288.78
2023-04-19T16:37:20.894Z,100311.03
2023-04-19T16:39:52.983Z,100305.75
2023-04-19T16:42:27.003Z,100290.53
2023-04-19T16:44:56.339Z,100314.34
2023-04-19T16:47:31.413Z,100321.50
2023-04-19T16:50:04.692Z,100325.47
2023-04-19T16:52:35.501Z,100322.66
2023-04-19T16:55:05.129Z,100324.78
2023-04-19T16:57:43.587Z,100312.94
2023-04-19T17:00:13.935Z,100333.22
2023-04-19T17:02:44.586Z,100337.00
2023-04-19T17:05:18.584Z,100334.75
2023-04-19T17:07:48.070Z,100344.41
2023-04-19T17:10:27.449Z,100334.06
2023-04-19T17:13:07.147Z,100336.56
2023-04-19T17:15:38.244Z,100345.50
2023-04-19T17:18:10.027Z,100348.47
2023-04-19T17:20:39.683Z,100359.63
2023-04-19T17:23:09.487Z,100362.63
2023-04-19T17:25:39.041Z,100346.53
2023-04-19T17:28:08.347Z,100352.19
2023-04-19T17:30:37.274Z,100354.44
2023-04-19T17:33:07.030Z,100371.22
2023-04-19T17:35:38.177Z,100380.97
2023-04-19T17:38:10.171Z,100371.94
2023-04-19T17:40:42.070Z,100371.09
2023-04-19T17:43:11.836Z,100375.31
2023-04-19T17:45:40.995Z,100379.03
2023-04-19T17:48:10.373Z,100377.31
2023-04-19T17:50:44.185Z,100380.13
2023-04-19T17:53:13.068Z,100375.34
2023-04-19T17:55:42.053Z,100392.88
2023-04-19T17:58:11.123Z,100395.69
2023-04-19T18:00:42.082Z,100404.16
2023-04-19T18:03:11.920Z,100358.09
2023-04-19T18:05:43.458Z,100392.81
2023-04-19T18:08:13.459Z,100406.66
2023-04-19T18:10:44.546Z,100404.66
2023-04-19T18:13:13.676Z,100381.91
2023-04-19T18:15:46.257Z,100410.69
2023-04-19T18:18:16.005Z,100398.41
2023-04-19T18:20:46.774Z,100422.41
2023-04-19T18:23:22.141Z,100416.28
2023-04-19T18:26:03.984Z,100374.59
2023-04-19T18:28:35.528Z,100410.66
2023-04-19T18:31:12.480Z,100428.63
2023-04-19T18:33:44.523Z,100392.91
2023-04-19T18:36:19.193Z,100431.50
2023-04-19T18:38:48.789Z,100429.75
2023-04-19T18:41:18.310Z,100429.91
2023-04-19T18:43:59.817Z,100421.56
2023-04-19T18:46:57.216Z,100386.66
2023-04-19T18:49:26.814Z,100427.31
2023-04-19T18:51:57.652Z,100417.34
2023-04-19T18:54:26.693Z,100428.09
2023-04-19T18:57:21.791Z,100428.88
2023-04-19T18:59:45.850Z,100431.56
2023-04-19T19:02:15.353Z,100424.69
2023-04-19T19:04:56.035Z,100424.75
2023-04-19T19:07:36.389Z,100412.16
2023-04-19T19:12:43.259Z,100408.47
2023-04-19T19:15:12.531Z,100427.38
2023-04-19T19:17:42.700Z,100424.06
2023-04-19T19:20:13.069Z,100427.44
2023-04-19T19:22:43.750Z,100421.63
2023-04-19T19:25:13.335Z,100414.38
2023-04-19T19:27:58.450Z,100422.84
2023-04-19T19:30:34.100Z,100414.53
2023-04-19T19:33:05.137Z,100407.22
2023-04-19T19:35:34.720Z,100402.25
2023-04-19T19:38:05.607Z,100395.63
2023-04-19T19:41:13.975Z,100417.00
2023-04-19T19:43:31.576Z,100412.38
2023-04-19T19:46:01.918Z,100407.34
2023-04-19T19:48:40.632Z,100413.53
2023-04-19T19:53:45.522Z,100396.56
2023-04-19T19:56:21.908Z,100412.88
2023-04-19T19:58:53.011Z,100410.16
2023-04-19T20:01:23.272Z,100409.34
2023-04-19T20:03:55.822Z,100402.41
2023-04-19T20:07:15.576Z,100397.31
2023-04-19T20:09:19.981Z,100388.09
2023-04-19T20:11:55.212Z,100406.16
2023-04-19T20:14:28.708Z,100410.06
2023-04-19T20:16:57.907Z,100402.59
2023-04-19T20:19:27.818Z,100399.22
2023-04-19T20:21:57.229Z,100400.22
2023-04-19T20:24:29.705Z,100398.84
2023-04-19T20:26:59.482Z,100398.22
2023-04-19T20:29:28.857Z,100385.66
2023-04-19T20:31:58.015Z,100404.47
2023-04-19T20:34:27.139Z,100392.38
2023-04-19T20:36:56.993Z,100392.13
2023-04-19T20:39:27.914Z,100394.75
2023-04-19T20:41:57.898Z,100399.03
2023-04-19T20:44:26.978Z,100393.50
2023-04-19T20:46:56.270Z,100392.16
2023-04-19T20:49:25.623Z,100376.69
2023-04-19T20:51:55.032Z,100335.31
2023-04-19T20:54:24.952Z,100376.13
2023-04-19T20:57:01.005Z,100390.03
2023-04-19T20:59:29.975Z,100375.00
2023-04-19T21:02:00.033Z,100384.28
2023-04-19T21:04:40.936Z,100368.25
2023-04-19T21:07:10.570Z,100366.72
2023-04-19T21:09:39.939Z,100359.16
2023-04-19T21:12:10.586Z,100376.13
2023-04-19T21:14:40.059Z,100372.81
2023-04-19T21:17:12.012Z,100382.34
2023-04-19T21:19:41.559Z,100378.50
2023-04-19T21:22:12.006Z,100373.84
2023-04-19T21:24:41.115Z,100374.25
2023-04-19T21:27:11.580Z,100374.44
2023-04-19T21:29:44.020Z,100348.22
2023-04-19T21:32:13.111Z,100372.28
2023-04-19T21:34:43.323Z,100370.44
2023-04-19T21:37:12.370Z,100378.84
2023-04-19T21:39:41.617Z,100375.72
2023-04-19T21:42:12.540Z,100360.94
2023-04-19T21:44:41.805Z,100340.19
2023-04-19T21:47:11.666Z,100335.19
2023-04-19T21:49:41.315Z,100363.31
2023-04-19T21:52:10.967Z,100361.41
2023-04-19T21:54:40.233Z,100348.91
2023-04-19T21:57:12.740Z,100290.84
2023-04-19T21:59:42.064Z,100361.41
2023-04-19T22:02:11.201Z,100351.34
2023-04-19T22:04:41.663Z,100353.59
2023-04-19T22:07:11.523Z,100347.97
2023-04-19T22:09:41.560Z,100349.97
2023-04-19T22:12:13.465Z,100345.59
2023-04-19T22:14:44.349Z,100338.06
2023-04-19T22:17:13.659Z,100342.72
2023-04-19T22:19:42.830Z,100316.44
2023-04-19T22:22:14.825Z,100312.34
2023-04-19T22:24:56.165Z,100328.78
2023-04-19T22:27:27.172Z,100321.16
2023-04-19T22:29:56.231Z,100321.84
2023-04-19T22:32:25.285Z,100326.94
2023-04-19T22:34:54.470Z,100324.50
2023-04-19T22:37:24.357Z,100316.53
2023-04-19T22:39:53.656Z,100312.63
2023-04-19T22:42:23.347Z,100301.28
2023-04-19T22:44:56.247Z,100288.59
2023-04-19T22:47:25.999Z,100274.47
2023-04-19T22:49:56.052Z,100306.00
2023-04-19T22:52:25.933Z,100295.78
2023-04-19T22:54:55.062Z,100300.72
2023-04-19T22:57:24.247Z,100301.91
2023-04-19T22:59:53.302Z,100296.44
2023-04-19T23:02:24.319Z,100296.31
2023-04-19T23:04:54.420Z,100254.84
2023-04-19T23:07:23.859Z,100300.31
2023-04-19T23:09:54.928Z,100288.25
2023-04-19T23:12:24.191Z,100269.44
2023-04-19T23:14:53.191Z,100284.69
2023-04-19T23:17:23.728Z,100238.66
2023-04-19T23:19:55.654Z,100284.22
2023-04-19T23:22:24.906Z,100268.50
2023-04-19T23:24:56.117Z,100237.13
2023-04-19T23:27:28.232Z,100275.00
2023-04-19T23:29:57.193Z,100276.22
2023-04-19T23:32:27.786Z,100277.66
2023-04-19T23:34:56.927Z,100271.47
2023-04-19T23:37:25.940Z,100262.19
2023-04-19T23:39:55.310Z,100270.72
2023-04-19T23:42:24.363Z,100263.63
2023-04-19T23:44:54.448Z,100268.19
2023-04-19T23:47:23.742Z,100266.44
2023-04-19T23:49:54.178Z,100257.22
2023-04-19T23:52:25.272Z,100265.47
2023-04-19T23:54:54.628Z,100266.03
2023-04-19T23:57:24.419Z,100250.03
2023-04-19T23:59:53.490Z,100251.09
